createdAt,value
2023-02-08T00:01:20.952Z,43.30
2023-02-08T00:04:25.866Z,46.47
2023-02-08T00:07:29.387Z,49.70
2023-02-08T00:10:32.904Z,43.30
2023-02-08T00:13:36.381Z,42.77
2023-02-08T00:16:39.574Z,51.20
2023-02-08T00:19:44.207Z,40.83
2023-02-08T00:22:47.336Z,40.73
2023-02-08T00:25:50.900Z,40.20
2023-02-08T00:28:54.424Z,37.37
2023-02-08T00:31:57.673Z,37.60
2023-02-08T00:35:02.221Z,32.57
2023-02-08T00:38:05.908Z,37.13
2023-02-08T00:41:09.158Z,34.20
2023-02-08T00:44:12.328Z,34.50
2023-02-08T00:47:17.367Z,34.07
2023-02-08T00:50:22.257Z,40.93
2023-02-08T00:53:25.392Z,39.03
2023-02-08T00:56:28.601Z,38.37
2023-02-08T00:59:31.835Z,32.10
2023-02-08T01:02:35.030Z,36.53
2023-02-08T01:05:40.451Z,36.57
2023-02-08T01:08:45.155Z,37.97
2023-02-08T01:11:48.393Z,37.07
2023-02-08T01:14:52.660Z,35.77
2023-02-08T01:17:56.376Z,35.50
2023-02-08T01:21:09.956Z,40.90
2023-02-08T01:24:17.775Z,41.50
2023-02-08T01:27:21.004Z,36.40
2023-02-08T01:30:27.024Z,32.17
2023-02-08T01:33:30.174Z,41.53
2023-02-08T01:36:35.395Z,44.87
2023-02-08T01:39:38.911Z,50.43
2023-02-08T01:42:42.111Z,45.10
2023-02-08T01:45:45.416Z,42.40
2023-02-08T01:48:49.535Z,34.47
2023-02-08T01:52:01.604Z,40.80
2023-02-08T01:55:10.911Z,43.30
2023-02-08T01:58:15.056Z,45.60
2023-02-08T02:01:18.938Z,40.07
2023-02-08T02:04:22.957Z,43.87
2023-02-08T02:07:30.712Z,47.10
2023-02-08T02:10:36.038Z,42.63
2023-02-08T02:13:39.356Z,35.20
2023-02-08T02:16:42.669Z,41.10
2023-02-08T02:19:53.835Z,35.97
2023-02-08T02:23:37.158Z,32.60
2023-02-08T02:27:10.638Z,38.17
2023-02-08T02:30:58.556Z,36.27
2023-02-08T02:34:09.590Z,40.50
2023-02-08T02:37:27.111Z,37.87
2023-02-08T02:40:37.243Z,34.90
2023-02-08T02:43:46.573Z,38.87
2023-02-08T02:46:57.575Z,38.67
2023-02-08T02:50:08.086Z,38.17
2023-02-08T02:53:18.043Z,37.37
2023-02-08T02:56:24.557Z,40.77
2023-02-08T02:59:29.157Z,36.17
2023-02-08T03:02:32.759Z,38.13
2023-02-08T03:05:37.540Z,37.03
2023-02-08T03:09:19.390Z,38.30
2023-02-08T03:12:35.276Z,35.73
2023-02-08T03:15:50.718Z,38.00
2023-02-08T03:19:07.840Z,35.27
2023-02-08T03:22:18.278Z,35.83
2023-02-08T03:25:27.641Z,36.70
2023-02-08T03:28:36.980Z,33.10
2023-02-08T03:31:47.284Z,31.33
2023-02-08T03:34:55.129Z,30.27
2023-02-08T03:38:04.633Z,33.40
2023-02-08T03:41:11.845Z,27.63
2023-02-08T03:44:20.183Z,31.30
2023-02-08T03:47:26.464Z,33.70
2023-02-08T03:50:34.799Z,27.67
2023-02-08T03:53:43.296Z,29.93
2023-02-08T03:56:53.431Z,30.17
2023-02-08T04:00:01.142Z,31.27
2023-02-08T04:03:08.215Z,26.27
2023-02-08T04:06:11.622Z,29.70
2023-02-08T04:09:16.299Z,32.17
2023-02-08T04:12:20.089Z,28.90
2023-02-08T04:15:23.551Z,25.47
2023-02-08T04:18:26.923Z,26.37
2023-02-08T04:21:30.408Z,25.20
2023-02-08T04:24:35.231Z,28.07
2023-02-08T04:27:38.540Z,26.73
2023-02-08T04:30:43.196Z,31.07
2023-02-08T04:33:46.638Z,29.37
2023-02-08T04:36:49.984Z,34.10
2023-02-08T04:39:54.383Z,31.30
2023-02-08T04:42:57.900Z,31.40
2023-02-08T04:46:00.921Z,33.13
2023-02-08T04:49:04.187Z,32.60
2023-02-08T04:52:07.399Z,30.43
2023-02-08T04:55:12.067Z,28.47
2023-02-08T04:58:15.246Z,29.43
2023-02-08T05:01:18.461Z,32.37
2023-02-08T05:04:21.690Z,34.40
2023-02-08T05:07:25.236Z,30.87
2023-02-08T05:10:29.833Z,33.83
2023-02-08T05:13:33.048Z,33.73
2023-02-08T05:16:36.075Z,33.13
2023-02-08T05:19:39.227Z,34.43
2023-02-08T05:22:42.381Z,31.53
2023-02-08T05:25:47.019Z,34.13
2023-02-08T05:28:50.431Z,33.30
2023-02-08T05:31:53.682Z,31.00
2023-02-08T05:34:56.830Z,32.90
2023-02-08T05:38:22.613Z,28.47
2023-02-08T05:41:27.167Z,36.67
2023-02-08T05:44:30.285Z,32.83
2023-02-08T05:47:33.352Z,35.23
2023-02-08T05:50:36.559Z,37.93
2023-02-08T05:53:39.822Z,33.83
2023-02-08T05:56:44.654Z,33.17
2023-02-08T05:59:47.718Z,30.90
2023-02-08T06:02:50.882Z,35.00
2023-02-08T06:05:54.047Z,35.90
2023-02-08T06:08:57.316Z,36.57
2023-02-08T06:12:01.683Z,39.07
2023-02-08T06:15:05.085Z,34.10
2023-02-08T06:24:35.081Z,41.13
2023-02-08T06:27:39.695Z,38.17
2023-02-08T06:30:43.046Z,38.33
2023-02-08T06:33:46.321Z,34.03
2023-02-08T06:36:49.345Z,39.67
2023-02-08T06:39:52.397Z,39.63
2023-02-08T06:42:56.821Z,37.97
2023-02-08T06:46:00.055Z,35.50
2023-02-08T06:49:04.771Z,38.50
2023-02-08T06:52:07.849Z,40.13
2023-02-08T06:55:10.837Z,36.93
2023-02-08T06:58:15.397Z,40.90
2023-02-08T07:01:18.510Z,37.93
2023-02-08T07:04:21.795Z,40.03
2023-02-08T07:07:25.507Z,36.00
2023-02-08T07:10:28.689Z,41.73
2023-02-08T07:13:33.137Z,39.53
2023-02-08T07:16:36.321Z,45.17
2023-02-08T07:19:39.805Z,42.27
2023-02-08T07:22:43.569Z,37.53
2023-02-08T07:25:46.692Z,42.97
2023-02-08T07:28:52.483Z,45.30
2023-02-08T07:31:55.613Z,39.73
2023-02-08T07:34:58.879Z,46.03
2023-02-08T07:38:01.895Z,45.57
2023-02-08T07:41:06.462Z,43.17
2023-02-08T07:44:10.778Z,41.70
2023-02-08T07:47:13.940Z,47.40
2023-02-08T07:50:17.559Z,42.43
2023-02-08T07:53:20.894Z,41.87
2023-02-08T07:56:23.975Z,38.70
2023-02-08T07:59:29.878Z,33.50
2023-02-08T08:02:32.863Z,38.67
2023-02-08T08:05:35.954Z,36.63
2023-02-08T08:08:39.737Z,35.20
2023-02-08T08:11:42.922Z,41.20
2023-02-08T08:14:47.243Z,37.73
2023-02-08T08:17:50.297Z,37.13
2023-02-08T08:20:53.473Z,38.27
2023-02-08T08:23:56.499Z,41.03
2023-02-08T08:27:00.731Z,36.00
2023-02-08T08:30:06.915Z,36.03
2023-02-08T08:33:09.889Z,37.13
2023-02-08T08:36:14.346Z,40.97
2023-02-08T08:39:17.448Z,40.10
2023-02-08T08:42:21.026Z,35.23
2023-02-08T08:45:25.815Z,42.93
2023-02-08T08:48:29.216Z,40.30
2023-02-08T08:51:35.198Z,33.23
2023-02-08T08:54:38.794Z,34.50
2023-02-08T08:57:41.777Z,37.37
2023-02-08T09:00:46.383Z,34.43
2023-02-08T09:03:49.396Z,35.00
2023-02-08T09:06:53.095Z,42.30
2023-02-08T09:09:56.128Z,42.47
2023-02-08T09:12:59.267Z,46.07
2023-02-08T09:16:09.102Z,42.10
2023-02-08T09:19:12.536Z,43.87
2023-02-08T09:22:15.650Z,43.53
2023-02-08T09:25:18.725Z,37.13
2023-02-08T09:28:22.133Z,39.03
2023-02-08T09:31:28.464Z,41.67
2023-02-08T09:34:31.801Z,42.87
2023-02-08T09:37:35.104Z,44.43
2023-02-08T09:40:46.974Z,43.83
2023-02-08T09:44:01.686Z,38.23
2023-02-08T09:47:15.806Z,45.33
2023-02-08T09:50:24.018Z,40.20
2023-02-08T09:53:32.808Z,45.37
2023-02-08T09:56:40.631Z,46.53
2023-02-08T09:59:52.966Z,48.57
2023-02-08T10:03:01.203Z,45.63
2023-02-08T10:06:05.536Z,46.13
2023-02-08T10:09:14.814Z,45.83
2023-02-08T10:12:26.320Z,47.50
2023-02-08T10:15:37.487Z,42.80
2023-02-08T10:18:49.034Z,42.30
2023-02-08T10:22:04.091Z,38.97
2023-02-08T10:25:29.017Z,45.20
2023-02-08T10:28:55.525Z,43.40
2023-02-08T10:32:15.653Z,44.40
2023-02-08T10:35:27.398Z,43.80
2023-02-08T10:38:45.933Z,42.73
2023-02-08T10:41:50.095Z,37.70
2023-02-08T10:45:06.553Z,37.87
2023-02-08T10:48:21.525Z,43.97
2023-02-08T10:51:25.988Z,43.57
2023-02-08T10:54:28.963Z,42.40
2023-02-08T10:57:36.119Z,43.67
2023-02-08T11:00:41.002Z,43.43
2023-02-08T11:04:01.877Z,43.17
2023-02-08T11:07:21.001Z,38.90
2023-02-08T11:10:26.588Z,45.60
2023-02-08T11:13:36.712Z,38.23
2023-02-08T11:16:41.502Z,44.27
2023-02-08T11:19:46.353Z,42.80
2023-02-08T11:22:51.200Z,45.03
2023-02-08T11:25:55.572Z,42.13
2023-02-08T11:29:06.019Z,42.80
2023-02-08T11:32:19.433Z,44.80
2023-02-08T11:35:24.470Z,41.53
2023-02-08T11:38:29.637Z,38.40
2023-02-08T11:41:33.006Z,44.57
2023-02-08T11:44:38.126Z,40.73
2023-02-08T11:47:43.220Z,40.87
2023-02-08T11:50:46.232Z,40.93
2023-02-08T11:53:50.769Z,42.47
2023-02-08T11:57:03.802Z,37.87
2023-02-08T12:00:21.601Z,44.33
2023-02-08T12:03:31.149Z,41.80
2023-02-08T12:07:06.127Z,38.47
2023-02-08T12:10:19.548Z,34.87
2023-02-08T12:13:36.567Z,35.93
2023-02-08T12:17:00.520Z,38.13
2023-02-08T12:20:35.195Z,43.50
2023-02-08T12:23:57.648Z,44.10
2023-02-08T12:27:17.233Z,40.67
2023-02-08T12:30:28.374Z,43.67
2023-02-08T12:33:43.961Z,44.47
2023-02-08T12:37:18.749Z,39.53
2023-02-08T12:40:50.141Z,39.43
2023-02-08T12:44:02.367Z,40.07
2023-02-08T12:47:17.123Z,35.53
2023-02-08T12:50:28.052Z,35.87
2023-02-08T12:53:35.929Z,36.07
2023-02-08T12:56:46.605Z,36.93
2023-02-08T12:59:56.117Z,36.50
2023-02-08T13:03:07.367Z,40.47
2023-02-08T13:06:17.252Z,40.37
2023-02-08T13:09:35.387Z,38.03
2023-02-08T13:12:42.371Z,38.57
2023-02-08T13:15:53.138Z,38.43
2023-02-08T13:19:06.075Z,34.40
2023-02-08T13:22:09.569Z,39.03
2023-02-08T13:25:21.590Z,37.13
2023-02-08T13:28:26.872Z,37.07
2023-02-08T13:31:36.003Z,38.03
2023-02-08T13:34:44.716Z,40.57
2023-02-08T13:37:52.498Z,32.77
2023-02-08T13:41:16.405Z,39.40
2023-02-08T13:44:23.612Z,37.93
2023-02-08T13:47:30.842Z,36.27
2023-02-08T13:50:47.064Z,35.33
2023-02-08T13:54:13.419Z,36.53
2023-02-08T13:57:53.497Z,40.67
2023-02-08T14:01:14.943Z,40.60
2023-02-08T14:04:40.048Z,35.53
2023-02-08T14:07:46.140Z,36.50
2023-02-08T14:11:01.366Z,34.27
2023-02-08T14:14:07.156Z,36.87
2023-02-08T14:17:22.714Z,37.00
2023-02-08T14:20:30.656Z,40.10
2023-02-08T14:23:39.510Z,37.60
2023-02-08T14:26:43.686Z,40.27
2023-02-08T14:30:00.481Z,36.47
2023-02-08T14:33:20.029Z,35.27
2023-02-08T14:36:30.159Z,35.43
2023-02-08T14:39:35.450Z,34.53
2023-02-08T14:42:58.274Z,36.73
2023-02-08T14:46:34.412Z,36.00
2023-02-08T14:49:41.072Z,35.80
2023-02-08T14:52:53.607Z,38.77
2023-02-08T14:56:01.057Z,39.87
2023-02-08T14:59:09.052Z,33.87
2023-02-08T15:02:21.005Z,35.10
2023-02-08T15:05:26.318Z,32.57
2023-02-08T15:08:31.070Z,31.37
2023-02-08T15:11:35.561Z,30.90
2023-02-08T15:14:42.101Z,36.50
2023-02-08T15:17:48.180Z,37.93
2023-02-08T15:21:04.206Z,38.97
2023-02-08T15:24:16.827Z,35.37
2023-02-08T15:27:26.047Z,33.60
2023-02-08T15:30:40.588Z,36.87
2023-02-08T15:33:44.168Z,39.37
2023-02-08T15:36:51.266Z,34.70
2023-02-08T15:39:57.894Z,36.23
2023-02-08T15:43:05.891Z,38.60
2023-02-08T15:46:19.011Z,34.13
2023-02-08T15:49:27.847Z,35.30
2023-02-08T15:52:33.282Z,36.33
2023-02-08T15:55:48.203Z,34.10
2023-02-08T15:58:54.919Z,34.43
2023-02-08T16:02:01.686Z,30.07
2023-02-08T16:05:17.829Z,34.07
2023-02-08T16:08:24.336Z,36.77
2023-02-08T16:11:31.636Z,35.10
2023-02-08T16:14:51.608Z,32.67
2023-02-08T16:17:55.548Z,34.83
2023-02-08T16:20:59.347Z,35.43
2023-02-08T16:24:07.011Z,35.97
2023-02-08T16:27:24.920Z,33.70
2023-02-08T16:30:28.328Z,38.87
2023-02-08T16:33:32.577Z,33.60
2023-02-08T16:36:40.694Z,33.90
2023-02-08T16:40:02.407Z,33.10
2023-02-08T16:43:23.327Z,39.93
2023-02-08T16:46:27.745Z,39.33
2023-02-08T16:49:30.856Z,37.63
2023-02-08T16:52:34.605Z,34.93
2023-02-08T16:55:38.500Z,35.33
2023-02-08T16:58:48.494Z,34.07
2023-02-08T17:01:51.580Z,39.63
2023-02-08T17:04:54.658Z,41.23
2023-02-08T17:07:59.010Z,36.20
2023-02-08T17:11:05.076Z,41.93
2023-02-08T17:14:10.109Z,37.20
2023-02-08T17:17:13.499Z,36.07
2023-02-08T17:20:22.302Z,39.03
2023-02-08T17:23:25.301Z,35.27
2023-02-08T17:26:30.482Z,37.73
2023-02-08T17:29:34.869Z,38.37
2023-02-08T17:32:37.921Z,40.00
2023-02-08T17:35:41.177Z,40.63
2023-02-08T17:38:45.532Z,37.00
2023-02-08T17:41:48.688Z,41.17
2023-02-08T17:44:53.234Z,39.20
2023-02-08T17:47:57.291Z,38.03
2023-02-08T17:51:00.424Z,37.13
2023-02-08T17:54:05.816Z,41.27
2023-02-08T17:57:08.930Z,41.27
2023-02-08T18:00:16.887Z,41.20
2023-02-08T18:03:20.461Z,41.80
2023-02-08T18:06:25.045Z,36.23
2023-02-08T18:09:29.616Z,42.70
2023-02-08T18:12:32.848Z,42.50
2023-02-08T18:15:37.733Z,37.77
2023-02-08T18:18:41.384Z,38.50
2023-02-08T18:21:44.934Z,41.03
2023-02-08T18:24:48.315Z,43.20
2023-02-08T18:27:51.539Z,40.60
2023-02-08T18:31:02.422Z,40.43
2023-02-08T18:34:05.970Z,45.80
2023-02-08T18:37:11.788Z,42.43
2023-02-08T18:40:15.052Z,37.03
2023-02-08T18:43:18.585Z,41.07
2023-02-08T18:46:24.690Z,40.03
2023-02-08T18:49:27.800Z,38.00
2023-02-08T18:52:31.868Z,40.37
2023-02-08T18:55:35.182Z,37.77
2023-02-08T18:58:39.561Z,36.67
2023-02-08T19:01:48.729Z,38.13
2023-02-08T19:04:53.181Z,39.93
2023-02-08T19:07:57.415Z,40.43
2023-02-08T19:11:05.011Z,34.90
2023-02-08T19:14:11.860Z,40.50
2023-02-08T19:17:17.061Z,40.50
2023-02-08T19:20:21.613Z,33.87
2023-02-08T19:23:26.604Z,36.90
2023-02-08T19:26:36.675Z,35.10
2023-02-08T19:29:41.672Z,35.20
2023-02-08T19:32:46.549Z,41.47
2023-02-08T19:35:50.048Z,39.33
2023-02-08T19:38:54.064Z,36.90
2023-02-08T19:41:58.818Z,41.57
2023-02-08T19:45:02.612Z,37.13
2023-02-08T19:48:07.300Z,40.77
2023-02-08T19:51:10.603Z,39.57
2023-02-08T19:54:15.974Z,38.20
2023-02-08T19:57:19.202Z,42.97
2023-02-08T20:00:24.261Z,39.87
2023-02-08T20:03:29.000Z,39.30
2023-02-08T20:06:34.019Z,39.50
2023-02-08T20:09:37.701Z,35.67
2023-02-08T20:12:40.873Z,39.03
2023-02-08T20:15:44.991Z,39.27
2023-02-08T20:18:50.336Z,30.60
2023-02-08T20:21:54.220Z,37.07
2023-02-08T20:24:57.509Z,35.10
2023-02-08T20:28:01.275Z,34.77
2023-02-08T20:31:09.078Z,35.57
2023-02-08T20:34:15.769Z,35.17
2023-02-08T20:37:21.110Z,31.43
2023-02-08T20:40:24.319Z,33.20
2023-02-08T20:43:27.731Z,36.80
2023-02-08T20:46:33.843Z,35.83
2023-02-08T20:49:39.490Z,31.57
2023-02-08T20:52:45.031Z,34.67
2023-02-08T20:55:48.316Z,32.57
2023-02-08T20:58:51.975Z,34.30
2023-02-08T21:01:55.946Z,31.20
2023-02-08T21:05:00.621Z,34.17
2023-02-08T21:08:03.897Z,39.20
2023-02-08T21:11:07.589Z,37.37
2023-02-08T21:14:13.737Z,35.47
2023-02-08T21:17:16.935Z,34.73
2023-02-08T21:20:21.988Z,33.23
2023-02-08T21:23:25.375Z,38.07
2023-02-08T21:26:28.880Z,38.63
2023-02-08T21:29:32.669Z,37.93
2023-02-08T21:32:35.977Z,36.60
2023-02-08T21:35:40.894Z,31.70
2023-02-08T21:38:44.662Z,30.70
2023-02-08T21:41:48.321Z,34.10
2023-02-08T21:44:51.582Z,36.07
2023-02-08T21:47:54.783Z,31.90
2023-02-08T21:51:20.314Z,36.90
2023-02-08T21:54:44.695Z,36.37
2023-02-08T21:57:48.098Z,36.77
2023-02-08T22:00:51.409Z,32.87
2023-02-08T22:03:54.744Z,31.23
2023-02-08T22:06:59.532Z,31.27
2023-02-08T22:10:07.261Z,33.47
2023-02-08T22:13:10.470Z,30.57
2023-02-08T22:16:14.118Z,33.07
2023-02-08T22:19:17.842Z,30.83
2023-02-08T22:22:22.434Z,30.17
2023-02-08T22:25:26.012Z,28.03
2023-02-08T22:28:29.494Z,31.40
2023-02-08T22:31:33.034Z,33.90
2023-02-08T22:34:38.145Z,29.73
2023-02-08T22:37:42.963Z,28.47
2023-02-08T22:40:46.477Z,34.00
2023-02-08T22:43:50.729Z,32.83
2023-02-08T22:46:54.375Z,29.07
2023-02-08T22:49:58.984Z,25.37
2023-02-08T22:53:03.805Z,29.80
2023-02-08T22:56:07.557Z,35.67
2023-02-08T22:59:11.101Z,27.53
2023-02-08T23:02:17.159Z,28.90
2023-02-08T23:05:20.424Z,32.20
2023-02-08T23:08:25.180Z,28.30
2023-02-08T23:11:31.738Z,29.67
2023-02-08T23:14:35.832Z,27.80
2023-02-08T23:17:43.239Z,27.37
2023-02-08T23:20:47.841Z,27.50
2023-02-08T23:23:56.369Z,27.07
2023-02-08T23:26:59.999Z,23.50
2023-02-08T23:30:04.427Z,23.10
2023-02-08T23:33:08.593Z,26.90
2023-02-08T23:36:15.724Z,24.80
2023-02-08T23:39:20.833Z,26.33
2023-02-08T23:42:27.199Z,25.33
2023-02-08T23:45:30.697Z,27.40
2023-02-08T23:48:34.251Z,26.47
2023-02-08T23:51:37.721Z,23.57
2023-02-08T23:54:42.476Z,23.33
2023-02-08T23:57:47.893Z,25.57
